Time;durP1;ratioP1;P1;durP2;ratioP2;P2;SDS_P1;SDS_P2;PMS_P1;PMS_P2;Temp;Humidity;BMP_temperature;BMP_pressure;BME280_temperature;BME280_humidity;BME280_pressure;Samples;Min_cycle;Max_cycle;Signal;HPM_P1;HPM_P2
2022/04/06 00:00:14;;;;;;;5.97;5.00;;;;;;;;;;5045325;28;20029;-59
2022/04/06 00:08:59;;;;;;;6.22;5.35;;;;;;;;;;5030219;28;20068;-59
2022/04/06 00:11:47;;;;;;;7.70;5.80;;;;;;;;;;5046188;28;20040;-59
2022/04/06 00:14:19;;;;;;;7.03;5.68;;;;;;;;;;5048450;28;20030;-59
2022/04/06 00:17:14;;;;;;;7.22;4.47;;;;;;;;;;5049849;28;20030;-59
2022/04/06 00:19:47;;;;;;;5.85;5.25;;;;;;;;;;5049587;28;20021;-59
2022/04/06 00:25:40;;;;;;;;;;;;;;;;;;;;;
2022/04/06 00:28:16;;;;;;;6.05;5.45;;;;;;;;;;5040776;28;20065;-58
2022/04/06 00:31:02;;;;;;;7.32;5.10;;;;;;;;;;5049424;28;20045;-58
2022/04/06 00:33:35;;;;;;;9.77;5.07;;;;;;;;;;5049579;28;20056;-59
2022/04/06 00:36:03;;;;;;;7.70;4.68;;;;;;;;;;5015382;28;20063;-59
2022/04/06 00:38:39;;;;;;;5.78;5.18;;;;;;;;;;5049091;28;20109;-58
2022/04/06 00:41:06;;;;;;;8.30;5.43;;;;;;;;;;5049678;28;20079;-59
2022/04/06 00:43:51;;;;;;;7.03;4.90;;;;;;;;;;5049661;28;20065;-59
2022/04/06 00:46:46;;;;;;;6.80;5.00;;;;;;;;;;5049711;28;20386;-59
2022/04/06 00:49:54;;;;;;;4.90;4.43;;;;;;;;;;5047021;28;20043;-59
2022/04/06 00:52:33;;;;;;;5.10;4.25;;;;;;;;;;4987986;28;20027;-59
2022/04/06 00:55:50;;;;;;;5.05;4.15;;;;;;;;;;4987954;28;20045;-59
2022/04/06 00:58:31;;;;;;;5.65;4.93;;;;;;;;;;4954498;28;20137;-59
2022/04/06 01:01:07;;;;;;;;;;;;;;;;;;;;;
2022/04/06 01:03:40;;;;;;;5.03;4.53;;;;;;;;;;4987533;28;19964;-59
2022/04/06 01:06:13;;;;;;;6.57;4.72;;;;;;;;;;4987736;28;20027;-59
2022/04/06 01:09:06;;;;;;;5.30;4.80;;;;;;;;;;4986626;28;20425;-59
2022/04/06 01:11:33;;;;;;;5.93;4.50;;;;;;;;;;4987689;28;20035;-59
2022/04/06 01:14:35;;;;;;;5.30;4.10;;;;;;;;;;4987761;28;20121;-59
2022/04/06 01:17:29;;;;;;;6.13;4.80;;;;;;;;;;4962242;28;20101;-59
2022/04/06 01:20:11;;;;;;;4.97;4.45;;;;;;;;;;5048731;28;20036;-59
2022/04/06 01:22:38;;;;;;;5.90;4.03;;;;;;;;;;5048616;28;20048;-59
2022/04/06 01:28:20;;;;;;;6.18;5.03;;;;;;;;;;5035515;28;20052;-59
2022/04/06 01:31:18;;;;;;;5.65;5.03;;;;;;;;;;5048296;28;20052;-58
2022/04/06 01:33:56;;;;;;;7.75;4.82;;;;;;;;;;5048189;28;20037;-59
2022/04/06 01:36:35;;;;;;;5.80;4.22;;;;;;;;;;5048556;28;20029;-59
2022/04/06 01:39:15;;;;;;;7.20;4.85;;;;;;;;;;5047278;28;20096;-59
2022/04/06 01:42:01;;;;;;;4.90;4.40;;;;;;;;;;5048639;28;20107;-59
2022/04/06 01:47:38;;;;;;;6.60;4.80;;;;;;;;;;4946469;29;20032;-59
2022/04/06 01:53:38;;;;;;;5.68;4.82;;;;;;;;;;5048427;28;20040;-59
2022/04/06 01:56:46;;;;;;;5.18;4.60;;;;;;;;;;5044531;28;20030;-58
2022/04/06 01:59:47;;;;;;;5.60;4.32;;;;;;;;;;4985789;28;20047;-59
2022/04/06 02:02:32;;;;;;;4.50;4.10;;;;;;;;;;4982797;28;20171;-59
2022/04/06 02:11:14;;;;;;;5.75;4.55;;;;;;;;;;5006813;28;20074;-59
2022/04/06 02:13:44;;;;;;;5.60;4.55;;;;;;;;;;5044441;28;20033;-59
2022/04/06 02:16:40;;;;;;;6.35;4.93;;;;;;;;;;5047562;28;20075;-59
2022/04/06 02:28:36;;;;;;;9.38;5.47;;;;;;;;;;5043983;28;20040;-59
2022/04/06 02:31:17;;;;;;;6.75;4.63;;;;;;;;;;5028020;28;20033;-59
2022/04/06 02:39:56;;;;;;;5.28;4.65;;;;;;;;;;5024602;28;20044;-59
2022/04/06 02:45:23;;;;;;;6.45;4.55;;;;;;;;;;5025062;28;20056;-59
2022/04/06 02:47:52;;;;;;;9.20;5.97;;;;;;;;;;5024057;28;20061;-59
2022/04/06 02:50:31;;;;;;;7.05;5.07;;;;;;;;;;5008474;28;20045;-59
2022/04/06 02:53:09;;;;;;;6.60;5.80;;;;;;;;;;5025088;28;20038;-58
2022/04/06 02:55:55;;;;;;;;;;;;;;;;;;;;;
2022/04/06 02:58:43;;;;;;;7.07;5.75;;;;;;;;;;5018229;28;20106;-59
2022/04/06 03:01:15;;;;;;;7.07;5.40;;;;;;;;;;5025146;28;20029;-59
2022/04/06 03:03:47;;;;;;;7.55;5.78;;;;;;;;;;5024794;28;20038;-59
2022/04/06 03:06:39;;;;;;;7.88;5.57;;;;;;;;;;5037998;28;20052;-59
2022/04/06 03:12:20;;;;;;;6.88;5.22;;;;;;;;;;5038172;28;20477;-59
2022/04/06 03:15:12;;;;;;;10.77;6.30;;;;;;;;;;5046203;28;20088;-59
2022/04/06 03:17:57;;;;;;;7.90;5.68;;;;;;;;;;5045497;28;20038;-57
2022/04/06 03:20:41;;;;;;;5.65;5.05;;;;;;;;;;5045720;28;20435;-57
2022/04/06 03:23:23;;;;;;;5.72;4.70;;;;;;;;;;5004275;28;20034;-57
2022/04/06 03:26:24;;;;;;;7.60;4.97;;;;;;;;;;5004819;28;20093;-57
2022/04/06 03:28:56;;;;;;;7.25;4.93;;;;;;;;;;4983792;28;20081;-57
2022/04/06 03:31:40;;;;;;;7.25;5.55;;;;;;;;;;4973949;28;20161;-57
2022/04/06 03:34:22;;;;;;;;;;;;;;;;;;;;;
2022/04/06 03:37:13;;;;;;;8.38;5.68;;;;;;;;;;5029002;28;20042;-58
2022/04/06 03:39:58;;;;;;;;;;;;;;;;;;;;;
2022/04/06 03:42:46;;;;;;;7.53;6.15;;;;;;;;;;5029650;28;20104;-58
2022/04/06 03:45:40;;;;;;;5.80;4.68;;;;;;;;;;5030135;28;20063;-58
2022/04/06 03:48:35;;;;;;;7.28;5.63;;;;;;;;;;5032141;28;20121;-57
2022/04/06 03:51:11;;;;;;;;;;;;;;;;;;;;;
2022/04/06 03:54:13;;;;;;;;;;;;;;;;;;;;;
2022/04/06 03:57:25;;;;;;;6.72;5.97;;;;;;;;;;5031231;28;20551;-58
2022/04/06 03:59:59;;;;;;;7.53;6.00;;;;;;;;;;5031811;28;20037;-58
2022/04/06 04:02:53;;;;;;;7.47;6.22;;;;;;;;;;5033128;28;20033;-58
2022/04/06 04:06:01;;;;;;;6.82;5.72;;;;;;;;;;5031967;28;20491;-58
2022/04/06 04:08:59;;;;;;;8.50;7.00;;;;;;;;;;5031785;28;20029;-58
2022/04/06 04:11:59;;;;;;;;;;;;;;;;;;;;;
2022/04/06 04:14:58;;;;;;;7.75;6.18;;;;;;;;;;5032925;28;20093;-58
2022/04/06 04:17:49;;;;;;;8.45;6.57;;;;;;;;;;5029802;28;20041;-58
2022/04/06 04:23:52;;;;;;;9.20;7.25;;;;;;;;;;4996846;28;20034;-58
2022/04/06 04:26:39;;;;;;;8.45;6.30;;;;;;;;;;5032871;28;20057;-58
2022/04/06 04:29:37;;;;;;;7.78;6.75;;;;;;;;;;5031859;28;20037;-58
2022/04/06 04:32:38;;;;;;;6.53;5.75;;;;;;;;;;5032840;28;20033;-58
2022/04/06 04:38:42;;;;;;;;;;;;;;;;;;;;;
2022/04/06 04:41:35;;;;;;;8.70;6.70;;;;;;;;;;5032438;28;20447;-58
2022/04/06 04:44:41;;;;;;;6.72;5.85;;;;;;;;;;4977953;28;20038;-58
2022/04/06 04:47:42;;;;;;;7.25;4.90;;;;;;;;;;5001817;28;20153;-58
2022/04/06 04:50:23;;;;;;;;;;;;;;;;;;5033169;28;20036;-58
2022/04/06 04:53:23;;;;;;;;;;;;;;;;;;;;;
2022/04/06 04:55:53;;;;;;;8.02;6.57;;;;;;;;;;5034455;28;20124;-58
2022/04/06 04:58:56;;;;;;;7.47;6.77;;;;;;;;;;5012929;28;20079;-58
2022/04/06 05:01:51;;;;;;;9.00;5.95;;;;;;;;;;4992509;28;20548;-58
2022/04/06 05:04:20;;;;;;;7.95;6.30;;;;;;;;;;4951516;29;20043;-58
2022/04/06 05:07:10;;;;;;;9.75;7.25;;;;;;;;;;4949985;29;20031;-58
2022/04/06 05:16:00;;;;;;;7.75;6.47;;;;;;;;;;4936424;29;20067;-58
2022/04/06 05:22:06;;;;;;;;;;;;;;;;;;;;;
2022/04/06 05:30:21;;;;;;;10.00;6.22;;;;;;;;;;5035546;28;20487;-58
2022/04/06 05:35:48;;;;;;;;;;;;;;;;;;5007907;28;20018;-58
2022/04/06 05:38:35;;;;;;;6.57;5.78;;;;;;;;;;5013896;28;20359;-58
2022/04/06 05:41:16;;;;;;;8.27;6.55;;;;;;;;;;5016087;28;20557;-58
2022/04/06 05:46:59;;;;;;;8.77;5.90;;;;;;;;;;5030584;28;20040;-58
2022/04/06 05:55:43;;;;;;;7.78;5.18;;;;;;;;;;5023347;28;20033;-58
2022/04/06 05:58:16;;;;;;;7.45;6.20;;;;;;;;;;5011318;28;20080;-58
2022/04/06 06:01:01;;;;;;;7.63;5.82;;;;;;;;;;5035222;28;20350;-58
2022/04/06 06:03:52;;;;;;;8.15;7.05;;;;;;;;;;5035258;28;20029;-58
2022/04/06 06:06:45;;;;;;;7.30;6.55;;;;;;;;;;5035273;28;20057;-58
2022/04/06 06:09:30;;;;;;;6.57;5.95;;;;;;;;;;5034226;28;20044;-57
2022/04/06 06:12:14;;;;;;;7.97;6.20;;;;;;;;;;5034826;28;20060;-58
2022/04/06 06:15:00;;;;;;;7.80;5.75;;;;;;;;;;5035266;28;20026;-58
2022/04/06 06:18:00;;;;;;;7.32;5.88;;;;;;;;;;5000185;28;20497;-57
2022/04/06 06:24:27;;;;;;;;;;;;;;;;;;;;;
2022/04/06 06:27:19;;;;;;;5.97;5.30;;;;;;;;;;5045147;28;20060;-58
2022/04/06 06:30:13;;;;;;;6.90;5.85;;;;;;;;;;5038210;28;20064;-59
2022/04/06 06:32:56;;;;;;;6.65;5.75;;;;;;;;;;5045812;28;20057;-59
2022/04/06 06:38:53;;;;;;;5.22;4.70;;;;;;;;;;5029519;28;20036;-58
2022/04/06 06:41:29;;;;;;;7.07;5.82;;;;;;;;;;4983013;28;20062;-59
2022/04/06 06:44:07;;;;;;;5.90;5.20;;;;;;;;;;4984370;28;20078;-58
2022/04/06 06:46:42;;;;;;;5.90;4.70;;;;;;;;;;4962515;29;20073;-58
2022/04/06 06:49:31;;;;;;;6.13;4.38;;;;;;;;;;4960630;28;20035;-58
2022/04/06 06:52:39;;;;;;;;;;;;;;;;;;;;;
2022/04/06 06:55:36;;;;;;;5.45;4.18;;;;;;;;;;5001746;28;20102;-58
2022/04/06 06:58:32;;;;;;;4.55;4.13;;;;;;;;;;5018448;28;20042;-58
2022/04/06 07:04:08;;;;;;;5.20;4.13;;;;;;;;;;4981326;28;20045;-58
2022/04/06 07:06:59;;;;;;;7.13;4.32;;;;;;;;;;4984301;28;20056;-58
2022/04/06 07:13:16;;;;;;;4.07;3.45;;;;;;;;;;4890187;29;20047;-57
2022/04/06 07:18:43;;;;;;;4.90;3.65;;;;;;;;;;5044427;28;20052;-57
2022/04/06 07:21:51;;;;;;;4.03;3.40;;;;;;;;;;5033685;28;20033;-58
2022/04/06 07:24:32;;;;;;;5.40;3.63;;;;;;;;;;4968184;28;20531;-56
2022/04/06 07:27:01;;;;;;;3.22;2.60;;;;;;;;;;5033739;28;20030;-57
2022/04/06 07:29:39;;;;;;;4.55;3.50;;;;;;;;;;5032226;28;20348;-58
2022/04/06 07:38:18;;;;;;;3.17;2.63;;;;;;;;;;5032788;28;20045;-58
2022/04/06 07:40:56;;;;;;;7.30;3.08;;;;;;;;;;5033752;28;20021;-57
2022/04/06 07:43:47;;;;;;;2.65;2.13;;;;;;;;;;5032507;28;20562;-58
2022/04/06 07:49:41;;;;;;;3.17;2.45;;;;;;;;;;5032542;28;20515;-57
2022/04/06 07:55:55;;;;;;;3.40;2.17;;;;;;;;;;4952549;28;20437;-58
2022/04/06 07:58:42;;;;;;;5.60;1.95;;;;;;;;;;4942098;28;20441;-58
2022/04/06 08:01:28;;;;;;;4.43;2.00;;;;;;;;;;4921799;29;20060;-58
2022/04/06 08:04:24;;;;;;;;;;;;;;;;;;;;;
2022/04/06 08:07:09;;;;;;;3.88;2.00;;;;;;;;;;4900966;29;20569;-58
2022/04/06 08:09:45;;;;;;;2.83;1.70;;;;;;;;;;4914237;29;20483;-57
2022/04/06 08:15:46;;;;;;;5.55;2.38;;;;;;;;;;4933962;29;20398;-58
2022/04/06 08:18:16;;;;;;;;;;;;;;;;;;5005344;28;20064;-57
2022/04/06 08:21:09;;;;;;;3.28;1.98;;;;;;;;;;5013895;28;20317;-57
2022/04/06 08:24:01;;;;;;;3.88;1.88;;;;;;;;;;4982894;28;20061;-58
2022/04/06 08:29:54;;;;;;;3.80;1.77;;;;;;;;;;5018119;28;20506;-58
2022/04/06 08:36:09;;;;;;;3.20;2.08;;;;;;;;;;4939222;29;20099;-58
2022/04/06 08:41:54;;;;;;;2.40;1.75;;;;;;;;;;4910284;29;20047;-56
2022/04/06 08:44:32;;;;;;;3.33;1.90;;;;;;;;;;4921103;29;20541;-57
2022/04/06 08:47:18;;;;;;;2.50;1.38;;;;;;;;;;4920501;29;20486;-57
2022/04/06 08:50:16;;;;;;;2.40;1.48;;;;;;;;;;4936310;29;20039;-58
2022/04/06 08:55:54;;;;;;;2.53;1.17;;;;;;;;;;5016706;28;20368;-58
2022/04/06 08:58:41;;;;;;;1.70;0.70;;;;;;;;;;5014772;28;20034;-58
2022/04/06 09:01:18;;;;;;;4.20;1.10;;;;;;;;;;5028857;28;20360;-58
2022/04/06 09:07:13;;;;;;;1.17;0.63;;;;;;;;;;5013883;28;20109;-58
2022/04/06 09:10:07;;;;;;;0.80;0.40;;;;;;;;;;5036345;28;20080;-58
2022/04/06 09:15:51;;;;;;;1.83;0.77;;;;;;;;;;4994944;28;20025;-58
2022/04/06 09:21:39;;;;;;;0.75;0.40;;;;;;;;;;5018411;28;20112;-58
2022/04/06 09:24:44;;;;;;;0.80;0.40;;;;;;;;;;5036562;28;20026;-58
2022/04/06 09:27:40;;;;;;;;;;;;;;;;;;;;;
2022/04/06 09:33:19;;;;;;;1.02;0.75;;;;;;;;;;5022977;28;20471;-58
2022/04/06 09:35:59;;;;;;;0.65;0.28;;;;;;;;;;5035526;28;20036;-58
2022/04/06 09:38:48;;;;;;;;;;;;;;;;;;;;;
2022/04/06 09:41:46;;;;;;;1.73;1.10;;;;;;;;;;5035434;28;20030;-57
2022/04/06 09:56:41;;;;;;;1.58;0.50;;;;;;;;;;5035769;28;20051;-58
2022/04/06 09:59:34;;;;;;;0.63;0.30;;;;;;;;;;4977573;28;20046;-58
2022/04/06 10:02:19;;;;;;;0.47;0.30;;;;;;;;;;5026333;28;20026;-58
2022/04/06 10:05:10;;;;;;;1.63;0.88;;;;;;;;;;5034771;28;20029;-57
2022/04/06 10:07:58;;;;;;;;;;;;;;;;;;;;;
2022/04/06 10:10:43;;;;;;;0.57;0.20;;;;;;;;;;5035097;28;20037;-57
2022/04/06 10:13:13;;;;;;;1.27;0.50;;;;;;;;;;5018374;28;20055;-57
2022/04/06 10:16:12;;;;;;;0.30;0.20;;;;;;;;;;5015994;28;20559;-57
2022/04/06 10:19:02;;;;;;;1.17;0.50;;;;;;;;;;5015285;28;20048;-58
2022/04/06 10:21:31;;;;;;;;;;;;;;;;;;5035281;28;20108;-58
2022/04/06 10:24:26;;;;;;;1.10;0.40;;;;;;;;;;5034753;28;19905;-58
2022/04/06 10:27:38;;;;;;;0.63;0.30;;;;;;;;;;5034784;28;20040;-58
2022/04/06 10:30:16;;;;;;;1.17;0.55;;;;;;;;;;5023756;28;20033;-58
2022/04/06 10:33:20;;;;;;;0.85;0.35;;;;;;;;;;5016465;28;20028;-56
2022/04/06 10:36:09;;;;;;;;;;;;;;;;;;;;;
2022/04/06 10:39:27;;;;;;;;;;;;;;;;;;;;;
2022/04/06 10:45:52;;;;;;;0.60;0.28;;;;;;;;;;4991924;28;20030;-58
2022/04/06 10:48:54;;;;;;;;;;;;;;;;;;;;;
2022/04/06 10:54:34;;;;;;;1.08;0.40;;;;;;;;;;5034212;28;20053;-57
2022/04/06 10:57:32;;;;;;;1.00;0.30;;;;;;;;;;5014956;28;20125;-56
2022/04/06 11:06:56;;;;;;;0.80;0.45;;;;;;;;;;4976148;28;20061;-57
2022/04/06 11:12:42;;;;;;;1.00;0.47;;;;;;;;;;5034273;28;20082;-57
2022/04/06 11:18:32;;;;;;;0.40;0.25;;;;;;;;;;4990634;28;20356;-57
2022/04/06 11:21:17;;;;;;;;;;;;;;;;;;;;;
2022/04/06 11:26:54;;;;;;;0.98;0.40;;;;;;;;;;5013580;28;20139;-58
2022/04/06 11:29:49;;;;;;;0.35;0.25;;;;;;;;;;5016882;28;20034;-57
2022/04/06 11:32:45;;;;;;;0.73;0.40;;;;;;;;;;5022885;28;20056;-58
2022/04/06 11:35:35;;;;;;;1.73;0.55;;;;;;;;;;5032161;28;20521;-58
2022/04/06 11:38:21;;;;;;;0.95;0.38;;;;;;;;;;5023469;28;20041;-56
2022/04/06 11:41:05;;;;;;;1.65;0.65;;;;;;;;;;5033077;28;20095;-57
2022/04/06 11:44:04;;;;;;;0.57;0.28;;;;;;;;;;5016683;28;20037;-57
2022/04/06 11:49:35;;;;;;;1.20;0.57;;;;;;;;;;5032886;28;20510;-57
2022/04/06 11:52:43;;;;;;;1.00;0.50;;;;;;;;;;5030007;28;20471;-57
2022/04/06 11:59:03;;;;;;;0.85;0.40;;;;;;;;;;4993415;28;20108;-57
2022/04/06 12:01:50;;;;;;;1.10;0.35;;;;;;;;;;4971564;28;20493;-57
2022/04/06 12:05:00;;;;;;;2.15;0.32;;;;;;;;;;5022722;28;20045;-58
2022/04/06 12:07:39;;;;;;;3.60;0.55;;;;;;;;;;4932948;29;20110;-57
2022/04/06 12:13:42;;;;;;;0.35;0.20;;;;;;;;;;4889375;29;20064;-58
2022/04/06 12:16:22;;;;;;;0.32;0.17;;;;;;;;;;4927337;29;20047;-58
2022/04/06 12:19:08;;;;;;;0.73;0.30;;;;;;;;;;4923815;29;20428;-58
2022/04/06 12:22:11;;;;;;;;;;;;;;;;;;;;;
2022/04/06 12:25:03;;;;;;;0.68;0.32;;;;;;;;;;4967504;28;20113;-57
2022/04/06 12:27:56;;;;;;;0.25;0.20;;;;;;;;;;4913101;29;20147;-57
2022/04/06 12:30:46;;;;;;;0.77;0.35;;;;;;;;;;4938007;28;20638;-57
2022/04/06 12:39:33;;;;;;;0.25;0.10;;;;;;;;;;4967659;28;20579;-57
2022/04/06 12:42:16;;;;;;;4.07;0.20;;;;;;;;;;4942718;28;20551;-57
2022/04/06 12:45:09;;;;;;;0.55;0.20;;;;;;;;;;4938429;29;20032;-58
2022/04/06 12:47:41;;;;;;;1.45;0.20;;;;;;;;;;4962677;28;20343;-58
2022/04/06 12:53:23;;;;;;;0.63;0.20;;;;;;;;;;5027003;28;20029;-57
2022/04/06 12:56:12;;;;;;;0.80;0.30;;;;;;;;;;5031966;28;20029;-57
2022/04/06 12:59:02;;;;;;;0.98;0.40;;;;;;;;;;5030408;28;20039;-59
2022/04/06 13:02:02;;;;;;;;;;;;;;;;;;;;;
2022/04/06 13:04:28;;;;;;;1.00;0.40;;;;;;;;;;5017566;28;20096;-58
2022/04/06 13:07:25;;;;;;;0.50;0.22;;;;;;;;;;5014273;28;20124;-59
2022/04/06 13:10:12;;;;;;;0.30;0.20;;;;;;;;;;5027944;28;20495;-59
2022/04/06 13:13:27;;;;;;;;;;;;;;;;;;;;;
2022/04/06 13:15:56;;;;;;;0.73;0.40;;;;;;;;;;5033088;28;20499;-59
2022/04/06 13:18:32;;;;;;;0.35;0.17;;;;;;;;;;5031563;28;20112;-57
2022/04/06 13:21:23;;;;;;;0.20;0.10;;;;;;;;;;5036769;28;20028;-56
2022/04/06 13:27:28;;;;;;;2.00;0.43;;;;;;;;;;5011791;28;20073;-56
2022/04/06 13:32:39;;;;;;;1.02;0.30;;;;;;;;;;4980486;28;20032;-58
2022/04/06 13:35:26;;;;;;;;;;;;;;;;;;;;;
2022/04/06 13:42:12;;;;;;;0.32;0.20;;;;;;;;;;4931764;29;20032;-59
2022/04/06 13:44:51;;;;;;;0.65;0.25;;;;;;;;;;4934234;29;20171;-59
2022/04/06 13:47:24;;;;;;;2.20;0.50;;;;;;;;;;5010019;28;20270;-57
2022/04/06 13:49:51;;;;;;;2.35;0.40;;;;;;;;;;5015115;28;20026;-58
2022/04/06 13:52:48;;;;;;;0.73;0.32;;;;;;;;;;5014589;28;20115;-57
2022/04/06 13:55:50;;;;;;;1.13;0.20;;;;;;;;;;5029089;28;20030;-58
2022/04/06 13:58:26;;;;;;;0.88;0.40;;;;;;;;;;5033242;28;20076;-57
2022/04/06 14:00:59;;;;;;;1.27;0.80;;;;;;;;;;5035106;28;20037;-57
2022/04/06 14:04:03;;;;;;;1.13;0.30;;;;;;;;;;5035005;28;20057;-57
2022/04/06 14:06:55;;;;;;;;;;;;;;;;;;;;;
2022/04/06 14:09:42;;;;;;;1.38;0.55;;;;;;;;;;5034175;28;20037;-58
2022/04/06 14:12:52;;;;;;;;;;;;;;;;;;;;;
2022/04/06 14:15:24;;;;;;;4.43;0.50;;;;;;;;;;5032597;28;20117;-57
2022/04/06 14:17:56;;;;;;;1.25;0.38;;;;;;;;;;5033847;28;20041;-58
2022/04/06 14:20:52;;;;;;;1.05;0.30;;;;;;;;;;5005779;28;20424;-57
2022/04/06 14:24:03;;;;;;;;;;;;;;;;;;;;;
2022/04/06 14:26:44;;;;;;;1.13;0.30;;;;;;;;;;5034462;28;20033;-59
2022/04/06 14:32:40;;;;;;;0.73;0.30;;;;;;;;;;5029451;28;20037;-57
2022/04/06 14:38:23;;;;;;;1.33;0.50;;;;;;;;;;5034147;28;20040;-58
2022/04/06 14:41:56;;;;;;;0.70;0.40;;;;;;;;;;5033355;28;20037;-56
2022/04/06 14:44:52;;;;;;;;;;;;;;;;;;;;;
2022/04/06 14:47:45;;;;;;;0.90;0.40;;;;;;;;;;5018600;28;20085;-57
2022/04/06 14:50:20;;;;;;;0.77;0.30;;;;;;;;;;5008116;28;20504;-57
2022/04/06 14:52:51;;;;;;;6.32;0.40;;;;;;;;;;5031563;28;20130;-57
2022/04/06 14:55:43;;;;;;;0.93;0.38;;;;;;;;;;5017337;28;20084;-57
2022/04/06 14:58:34;;;;;;;2.47;0.38;;;;;;;;;;5031866;28;20041;-55
2022/04/06 15:01:10;;;;;;;1.02;0.28;;;;;;;;;;5032518;28;20509;-57
2022/04/06 15:03:39;;;;;;;0.82;0.38;;;;;;;;;;5034192;28;20029;-55
2022/04/06 15:09:09;;;;;;;0.90;0.30;;;;;;;;;;5016004;28;20051;-57
2022/04/06 15:11:56;;;;;;;1.65;0.60;;;;;;;;;;4972220;28;20473;-58
2022/04/06 15:14:41;;;;;;;1.10;0.40;;;;;;;;;;4956736;28;20536;-57
2022/04/06 15:17:16;;;;;;;2.15;0.60;;;;;;;;;;4951054;28;20034;-58
2022/04/06 15:20:06;;;;;;;0.52;0.30;;;;;;;;;;4972588;28;20055;-57
2022/04/06 15:22:55;;;;;;;1.95;0.60;;;;;;;;;;5033675;28;20033;-58
2022/04/06 15:28:57;;;;;;;0.75;0.30;;;;;;;;;;5005681;28;20133;-58
2022/04/06 15:32:00;;;;;;;1.25;0.73;;;;;;;;;;5016401;28;20028;-58
2022/04/06 15:40:32;;;;;;;1.33;0.50;;;;;;;;;;5017339;28;20087;-58
2022/04/06 15:43:17;;;;;;;1.00;0.60;;;;;;;;;;5035951;28;20036;-58
2022/04/06 15:46:09;;;;;;;1.10;0.60;;;;;;;;;;5011904;28;20052;-58
2022/04/06 15:49:07;;;;;;;0.60;0.32;;;;;;;;;;5028111;28;20083;-58
2022/04/06 15:51:36;;;;;;;0.95;0.40;;;;;;;;;;5023093;28;20052;-58
2022/04/06 15:54:13;;;;;;;2.15;1.17;;;;;;;;;;5027322;28;20033;-60
2022/04/06 15:59:59;;;;;;;1.92;0.63;;;;;;;;;;5040857;28;20092;-59
2022/04/06 16:03:05;;;;;;;;;;;;;;;;;;;;;
2022/04/06 16:06:03;;;;;;;2.53;0.63;;;;;;;;;;5002567;28;20094;-59
2022/04/06 16:11:39;;;;;;;2.80;0.70;;;;;;;;;;5032852;28;20026;-59
2022/04/06 16:14:24;;;;;;;0.65;0.38;;;;;;;;;;5016129;28;20038;-60
2022/04/06 16:20:00;;;;;;;1.05;0.45;;;;;;;;;;5025339;28;20073;-59
2022/04/06 16:25:57;;;;;;;1.60;0.43;;;;;;;;;;5028708;28;20033;-59
2022/04/06 16:29:02;;;;;;;;;;;;;;;;;;;;;
2022/04/06 16:31:49;;;;;;;0.75;0.40;;;;;;;;;;4991128;28;20041;-60
2022/04/06 16:37:19;;;;;;;0.80;0.40;;;;;;;;;;5028178;28;20447;-60
2022/04/06 16:39:55;;;;;;;2.70;0.70;;;;;;;;;;5029721;28;20037;-58
2022/04/06 16:42:51;;;;;;;2.58;0.60;;;;;;;;;;5015416;28;20033;-57
2022/04/06 16:45:52;;;;;;;1.17;0.50;;;;;;;;;;5012809;28;20550;-57
2022/04/06 16:48:37;;;;;;;0.95;0.50;;;;;;;;;;4949352;28;20039;-58
2022/04/06 16:54:27;;;;;;;2.92;0.60;;;;;;;;;;5027057;28;20136;-57
2022/04/06 16:57:09;;;;;;;4.75;0.85;;;;;;;;;;5028913;28;20030;-58
2022/04/06 17:00:05;;;;;;;0.77;0.35;;;;;;;;;;5030295;28;20079;-57
2022/04/06 17:03:13;;;;;;;1.15;0.60;;;;;;;;;;5030915;28;20048;-57
2022/04/06 17:05:53;;;;;;;1.27;0.65;;;;;;;;;;5004440;28;20037;-57
2022/04/06 17:08:31;;;;;;;3.60;0.95;;;;;;;;;;5029652;28;20103;-59
2022/04/06 17:11:39;;;;;;;;;;;;;;;;;;;;;
2022/04/06 17:14:30;;;;;;;1.88;0.90;;;;;;;;;;5032360;28;20030;-59
2022/04/06 17:17:06;;;;;;;;;;;;;;;;;;5034266;28;20092;-59
2022/04/06 17:19:49;;;;;;;1.05;0.60;;;;;;;;;;5028525;28;19928;-59
2022/04/06 17:22:30;;;;;;;1.17;0.63;;;;;;;;;;5033712;28;20017;-59
2022/04/06 17:25:15;;;;;;;1.67;0.65;;;;;;;;;;5031415;28;20380;-56
2022/04/06 17:28:00;;;;;;;2.05;0.60;;;;;;;;;;5030998;28;20022;-58
2022/04/06 17:30:35;;;;;;;1.52;0.80;;;;;;;;;;5017884;28;20022;-59
2022/04/06 17:33:27;;;;;;;1.42;0.80;;;;;;;;;;5033639;28;20047;-59
2022/04/06 17:39:22;;;;;;;;;;;;;;;;;;;;;
2022/04/06 17:42:29;;;;;;;5.05;3.50;;;;;;;;;;5025204;28;20116;-57
2022/04/06 17:48:13;;;;;;;17.15;8.98;;;;;;;;;;5029667;28;20076;-58
2022/04/06 17:54:05;;;;;;;8.00;2.95;;;;;;;;;;5015563;28;20107;-56
2022/04/06 18:00:25;;;;;;;3.05;1.80;;;;;;;;;;4992324;28;20038;-57
2022/04/06 18:06:25;;;;;;;1.75;0.90;;;;;;;;;;5011858;28;20065;-57
2022/04/06 18:09:04;;;;;;;;;;;;;;;;;;5023777;28;20566;-57
2022/04/06 18:14:58;;;;;;;1.13;0.60;;;;;;;;;;5033123;28;20555;-57
2022/04/06 18:20:51;;;;;;;2.65;1.20;;;;;;;;;;5013315;28;20056;-57
2022/04/06 18:23:46;;;;;;;3.45;1.40;;;;;;;;;;4928112;29;20232;-57
2022/04/06 18:29:15;;;;;;;1.23;0.70;;;;;;;;;;4923064;29;20047;-58
2022/04/06 18:31:50;;;;;;;1.70;0.97;;;;;;;;;;4931995;29;20766;-57
2022/04/06 18:34:41;;;;;;;2.50;1.27;;;;;;;;;;5013324;28;20264;-58
2022/04/06 18:40:32;;;;;;;1.60;0.85;;;;;;;;;;5014818;28;20052;-58
2022/04/06 18:43:30;;;;;;;1.58;0.80;;;;;;;;;;5013364;28;20033;-58
2022/04/06 18:52:55;;;;;;;2.47;1.52;;;;;;;;;;5025382;28;20033;-59
2022/04/06 18:58:36;;;;;;;;;;;;;;;;;;;;;
2022/04/06 19:01:41;;;;;;;1.83;0.95;;;;;;;;;;5033442;28;20021;-59
2022/04/06 19:04:36;;;;;;;;;;;;;;;;;;;;;
2022/04/06 19:10:46;;;;;;;1.95;0.88;;;;;;;;;;5032612;28;20036;-58
2022/04/06 19:22:39;;;;;;;2.05;1.02;;;;;;;;;;4918831;29;20107;-57
2022/04/06 19:25:56;;;;;;;2.30;1.17;;;;;;;;;;4915582;29;20032;-59
2022/04/06 19:28:33;;;;;;;2.25;1.23;;;;;;;;;;4909147;29;20522;-58
2022/04/06 19:33:56;;;;;;;2.05;1.02;;;;;;;;;;4974660;28;20041;-59
2022/04/06 19:36:37;;;;;;;;;;;;;;;;;;;;;
2022/04/06 19:42:22;;;;;;;3.67;1.20;;;;;;;;;;5033747;28;20102;-57
2022/04/06 19:45:06;;;;;;;1.85;1.02;;;;;;;;;;5033401;28;20495;-59
2022/04/06 19:47:41;;;;;;;2.28;1.20;;;;;;;;;;5041039;28;20090;-59
2022/04/06 19:50:12;;;;;;;2.55;1.40;;;;;;;;;;5031010;28;20491;-58
2022/04/06 19:53:16;;;;;;;4.82;1.13;;;;;;;;;;5032747;28;20420;-59
2022/04/06 19:56:01;;;;;;;4.15;2.00;;;;;;;;;;5031082;28;20101;-59
2022/04/06 20:01:49;;;;;;;1.40;0.88;;;;;;;;;;5030497;28;20490;-59
2022/04/06 20:17:08;;;;;;;2.80;1.23;;;;;;;;;;5029482;28;20495;-58
2022/04/06 20:19:55;;;;;;;1.77;1.15;;;;;;;;;;5032718;28;20034;-58
2022/04/06 20:22:40;;;;;;;1.60;0.93;;;;;;;;;;5033098;28;20365;-59
2022/04/06 20:25:33;;;;;;;;;;;;;;;;;;;;;
2022/04/06 20:28:35;;;;;;;;;;;;;;;;;;;;;
2022/04/06 20:31:24;;;;;;;2.67;1.60;;;;;;;;;;5034414;28;20055;-58
2022/04/06 20:34:11;;;;;;;1.65;1.02;;;;;;;;;;5036845;28;20057;-58
2022/04/06 20:37:18;;;;;;;2.45;1.27;;;;;;;;;;5037421;28;20092;-58
2022/04/06 20:39:50;;;;;;;2.17;1.15;;;;;;;;;;4994728;28;20038;-58
2022/04/06 20:45:23;;;;;;;2.45;1.60;;;;;;;;;;5020054;28;20152;-58
2022/04/06 20:51:18;;;;;;;1.70;1.15;;;;;;;;;;5017578;28;20044;-58
2022/04/06 20:54:26;;;;;;;2.95;1.85;;;;;;;;;;5036734;28;20486;-57
2022/04/06 20:57:05;;;;;;;2.08;1.25;;;;;;;;;;5036731;28;20044;-58
2022/04/06 20:59:45;;;;;;;;;;;;;;;;;;;;;
2022/04/06 21:02:30;;;;;;;2.60;1.50;;;;;;;;;;5033609;28;20089;-56
2022/04/06 21:05:27;;;;;;;3.83;1.80;;;;;;;;;;5049737;28;20033;-60
2022/04/06 21:08:06;;;;;;;3.13;1.60;;;;;;;;;;5048679;28;20048;-58
2022/04/06 21:10:55;;;;;;;3.03;1.75;;;;;;;;;;5049548;28;20029;-58
2022/04/06 21:13:58;;;;;;;2.47;1.20;;;;;;;;;;5050616;28;20187;-58
2022/04/06 21:16:30;;;;;;;2.38;1.65;;;;;;;;;;5049681;28;20021;-58
2022/04/06 21:19:33;;;;;;;3.33;1.63;;;;;;;;;;5048891;28;20067;-58
2022/04/06 21:22:21;;;;;;;2.50;1.67;;;;;;;;;;5048614;28;20060;-59
2022/04/06 21:24:53;;;;;;;4.28;1.70;;;;;;;;;;5049205;28;20052;-58
2022/04/06 21:27:30;;;;;;;3.25;2.13;;;;;;;;;;5048686;28;20033;-57
2022/04/06 21:30:29;;;;;;;3.65;1.60;;;;;;;;;;5049458;28;20029;-58
2022/04/06 21:33:11;;;;;;;2.95;1.83;;;;;;;;;;5049090;28;20029;-59
2022/04/06 21:36:02;;;;;;;2.67;2.00;;;;;;;;;;5049314;28;20037;-58
2022/04/06 21:38:57;;;;;;;3.05;1.67;;;;;;;;;;5047914;28;20033;-58
2022/04/06 21:45:12;;;;;;;4.15;1.67;;;;;;;;;;5046175;28;20091;-58
2022/04/06 21:48:16;;;;;;;2.33;1.52;;;;;;;;;;4995985;28;20073;-57
2022/04/06 21:50:57;;;;;;;2.90;2.00;;;;;;;;;;5008205;28;20030;-58
2022/04/06 21:56:38;;;;;;;1.90;1.30;;;;;;;;;;5007477;28;19912;-58
2022/04/06 22:01:58;;;;;;;2.58;1.70;;;;;;;;;;5015531;28;20040;-58
2022/04/06 22:04:43;;;;;;;2.80;1.48;;;;;;;;;;5048871;28;20056;-59
2022/04/06 22:07:19;;;;;;;2.40;1.45;;;;;;;;;;5048016;28;20064;-59
2022/04/06 22:10:19;;;;;;;2.70;1.48;;;;;;;;;;5048435;28;20041;-58
2022/04/06 22:16:05;;;;;;;2.20;1.48;;;;;;;;;;5037299;28;20336;-59
2022/04/06 22:18:54;;;;;;;;;;;;;;;;;;;;;
2022/04/06 22:21:29;;;;;;;2.38;1.50;;;;;;;;;;5048196;28;20060;-58
2022/04/06 22:23:56;;;;;;;5.13;2.17;;;;;;;;;;5048301;28;20025;-58
2022/04/06 22:26:26;;;;;;;3.17;1.50;;;;;;;;;;5048969;28;20025;-59
2022/04/06 22:28:53;;;;;;;;;;;;;;;;;;5048123;28;20076;-58
2022/04/06 22:31:41;;;;;;;3.90;1.92;;;;;;;;;;5048285;28;19905;-58
2022/04/06 22:34:31;;;;;;;;;;;;;;;;;;;;;
2022/04/06 22:37:20;;;;;;;1.77;1.20;;;;;;;;;;5047991;28;20073;-59
2022/04/06 22:45:59;;;;;;;2.10;1.55;;;;;;;;;;5044401;28;20072;-58
2022/04/06 22:48:50;;;;;;;3.00;1.33;;;;;;;;;;5046915;28;20029;-58
2022/04/06 22:51:47;;;;;;;5.13;1.90;;;;;;;;;;5047654;28;20368;-58
2022/04/06 22:54:37;;;;;;;;;;;;;;;;;;;;;
2022/04/06 23:00:02;;;;;;;2.20;1.30;;;;;;;;;;5036886;28;20038;-58